Capt Craig — WDG7988 — position and weather

sailwx.info

Track history (hours):
 
Tides and Currents Weather Stations Pressure Air Temp Water Temp Dewpoint Dewpoint Depression Visibility Wind Speed Wind Dir Waves Ship Positions

Capt Craig

Owner: Capt Craig Towing, LLC, Hull, TX. More information available from US FCC via Universal Licensing System and Coast Guard Vessel Documentation Center.

Last reported at 2017-Dec-11 01:31 UTC. Time now 2017-Dec-13 14:53 UTC.
Position N 29°46' W 095°06'.

MMSI: 365789314.

Date/timePositionNaut miles runAvg speedWind from/ knotsBaromVisibWave heightAir tempDewpointWater temp
2017-Dec-11 01:31N 29°46' W 095°06'0 4.7
2017-Dec-11 01:26N 29°46' W 095°06'2 3.8
2017-Dec-11 01:00N 29°44' W 095°07'4 7.7
2017-Dec-11 00:30N 29°45' W 095°11'3 5.8
2017-Dec-10 23:55N 29°43' W 095°14'0 0.0
2017-Dec-10 21:37N 29°43' W 095°14'0 0.0
2017-Dec-10 19:56N 29°43' W 095°14'0 0.0
2017-Dec-10 19:20N 29°43' W 095°14'0 0.0
2017-Dec-10 18:59N 29°43' W 095°14'2 3.5
2017-Dec-10 18:21N 29°44' W 095°12'2 6.3
2017-Dec-10 17:58N 29°44' W 095°09'4 0.3
2017-Dec-10 04:19N 29°46' W 095°06'2 0.7
2017-Dec-10 01:29N 29°45' W 095°04'2 3.3
2017-Dec-10 01:00N 29°44' W 095°03'0 0.3
2017-Dec-10 00:28N 29°44' W 095°03'3 3.0
2017-Dec-09 23:21N 29°46' W 095°06'3 5.1
2017-Dec-09 22:50N 29°44' W 095°08'1 4.6
2017-Dec-09 22:30N 29°45' W 095°10'3 0.2
2017-Dec-09 00:43N 29°46' W 095°06'2 4.7
2017-Dec-09 00:20N 29°44' W 095°07'3 2.6
2017-Dec-08 23:07N 29°45' W 095°10'0 0.0
2017-Dec-08 22:59N 29°45' W 095°10'1 0.2
2017-Dec-08 20:21N 29°45' W 095°10'5 2.2
2017-Dec-08 18:06N 29°45' W 095°04'1 7.3
2017-Dec-08 18:00N 29°45' W 095°04'2 0.8
2017-Dec-08 14:59N 29°44' W 095°01'3 5.1
2017-Dec-08 14:27N 29°45' W 095°04'2 0.0
2017-Dec-07 02:30N 29°46' W 095°06'2 2.1
2017-Dec-07 01:24N 29°44' W 095°07'2 1.8
2017-Dec-07 00:11N 29°46' W 095°06'0 0.0
2017-Dec-06 22:18N 29°46' W 095°06'0 0.4
2017-Dec-06 21:50N 29°46' W 095°06'2 5.2
2017-Dec-06 21:26N 29°45' W 095°04'3 6.6
2017-Dec-06 20:58N 29°43' W 095°01'  
2017-Dec-04 01:54N 29°46' W 095°05'0 0.1
2017-Dec-03 21:49N 29°45' W 095°06'1 1.3
2017-Dec-03 21:09N 29°46' W 095°06'0 0.0
2017-Dec-03 06:55N 29°46' W 095°06'1 2.4
2017-Dec-03 06:22N 29°45' W 095°06'2 5.9
2017-Dec-03 06:01N 29°44' W 095°08'1 2.8
2017-Dec-03 05:30N 29°44' W 095°10'0 0.0
2017-Dec-03 05:00N 29°44' W 095°10'0 0.0
2017-Dec-03 04:26N 29°44' W 095°10'0 0.0
2017-Dec-03 04:01N 29°44' W 095°10'0 0.0
2017-Dec-03 03:30N 29°44' W 095°10'0 0.1
2017-Dec-03 03:00N 29°45' W 095°10'2 3.2
2017-Dec-03 02:30N 29°44' W 095°08'0 0.0
2017-Dec-03 01:59N 29°44' W 095°08'0 0.7
2017-Dec-03 01:28N 29°44' W 095°08'3 4.9
2017-Dec-03 00:55N 29°46' W 095°05'0 0.0
2017-Dec-03 00:24N 29°46' W 095°05'3 6.0
2017-Dec-02 23:55N 29°44' W 095°08'3 7.3
2017-Dec-02 23:30N 29°45' W 095°11'1 1.7
2017-Dec-02 23:00N 29°44' W 095°12'0 0.0
2017-Dec-02 22:31N 29°44' W 095°12'0 0.0
2017-Dec-02 21:59N 29°44' W 095°12'2 3.5
2017-Dec-02 21:30N 29°45' W 095°10'3 0.5
2017-Dec-02 16:50N 29°44' W 095°08'0 0.0
2017-Dec-02 16:30N 29°44' W 095°08'0 0.0
2017-Dec-02 16:00N 29°44' W 095°08'0 0.0
2017-Dec-02 15:27N 29°44' W 095°08'0 0.0
2017-Dec-02 15:00N 29°44' W 095°08'2 0.4
2017-Dec-02 07:57N 29°46' W 095°06'2 4.2
2017-Dec-02 07:29N 29°44' W 095°06'3 1.8
2017-Dec-02 05:36N 29°45' W 095°10'0 0.1
2017-Dec-02 03:34N 29°45' W 095°10'1 7.8
2017-Dec-02 03:29N 29°44' W 095°09'3 4.7
2017-Dec-02 02:46N 29°46' W 095°06'0 0.2
2017-Dec-02 01:20N 29°46' W 095°06'2 4.4
2017-Dec-02 00:56N 29°45' W 095°06'4 7.3
2017-Dec-02 00:25N 29°45' W 095°11'1 1.6
2017-Dec-01 23:30N 29°44' W 095°12'0 0.0
2017-Dec-01 21:43N 29°44' W 095°12'2 5.2
2017-Dec-01 21:20N 29°45' W 095°10'5 1.5
2017-Dec-01 17:55N 29°45' W 095°04'1 0.7
2017-Dec-01 16:37N 29°44' W 095°03'2 1.6
2017-Dec-01 15:05N 29°45' W 095°06'1 5.5
2017-Dec-01 14:51N 29°44' W 095°07'0 0.1
2017-Dec-01 14:29N 29°44' W 095°07'0 0.0
2017-Dec-01 13:53N 29°44' W 095°07'2 0.2
2017-Dec-01 04:05N 29°46' W 095°06'0 2.7
2017-Dec-01 04:00N 29°46' W 095°06'1 0.4
2017-Dec-01 01:37N 29°45' W 095°06'  
Track history (hours):
 
Tides and Currents Weather Stations Pressure Air Temp Water Temp Dewpoint Dewpoint Depression Visibility Wind Speed Wind Dir Waves Ship Positions

Capt Craig

Owner: Capt Craig Towing, LLC, Hull, TX. More information available from US FCC via Universal Licensing System and Coast Guard Vessel Documentation Center.

Last reported at 2017-Dec-11 01:31 UTC. Time now 2017-Dec-13 14:53 UTC.
Position N 29°46' W 095°06'.

MMSI: 365789314.

Date/timePositionNaut miles runAvg speedWind from/ knotsBaromVisibWave heightAir tempDewpointWater temp
2017-Dec-11 01:31N 29°46' W 095°06'0 4.7
2017-Dec-11 01:26N 29°46' W 095°06'2 3.8
2017-Dec-11 01:00N 29°44' W 095°07'4 7.7
2017-Dec-11 00:30N 29°45' W 095°11'3 5.8
2017-Dec-10 23:55N 29°43' W 095°14'0 0.0
2017-Dec-10 21:37N 29°43' W 095°14'0 0.0
2017-Dec-10 19:56N 29°43' W 095°14'0 0.0
2017-Dec-10 19:20N 29°43' W 095°14'0 0.0
2017-Dec-10 18:59N 29°43' W 095°14'2 3.5
2017-Dec-10 18:21N 29°44' W 095°12'2 6.3
2017-Dec-10 17:58N 29°44' W 095°09'4 0.3
2017-Dec-10 04:19N 29°46' W 095°06'2 0.7
2017-Dec-10 01:29N 29°45' W 095°04'2 3.3
2017-Dec-10 01:00N 29°44' W 095°03'0 0.3
2017-Dec-10 00:28N 29°44' W 095°03'3 3.0
2017-Dec-09 23:21N 29°46' W 095°06'3 5.1
2017-Dec-09 22:50N 29°44' W 095°08'1 4.6
2017-Dec-09 22:30N 29°45' W 095°10'3 0.2
2017-Dec-09 00:43N 29°46' W 095°06'2 4.7
2017-Dec-09 00:20N 29°44' W 095°07'3 2.6
2017-Dec-08 23:07N 29°45' W 095°10'0 0.0
2017-Dec-08 22:59N 29°45' W 095°10'1 0.2
2017-Dec-08 20:21N 29°45' W 095°10'5 2.2
2017-Dec-08 18:06N 29°45' W 095°04'1 7.3
2017-Dec-08 18:00N 29°45' W 095°04'2 0.8
2017-Dec-08 14:59N 29°44' W 095°01'3 5.1
2017-Dec-08 14:27N 29°45' W 095°04'2 0.0
2017-Dec-07 02:30N 29°46' W 095°06'2 2.1
2017-Dec-07 01:24N 29°44' W 095°07'2 1.8
2017-Dec-07 00:11N 29°46' W 095°06'0 0.0
2017-Dec-06 22:18N 29°46' W 095°06'0 0.4
2017-Dec-06 21:50N 29°46' W 095°06'2 5.2
2017-Dec-06 21:26N 29°45' W 095°04'3 6.6
2017-Dec-06 20:58N 29°43' W 095°01'  
2017-Dec-04 01:54N 29°46' W 095°05'0 0.1
2017-Dec-03 21:49N 29°45' W 095°06'1 1.3
2017-Dec-03 21:09N 29°46' W 095°06'0 0.0
2017-Dec-03 06:55N 29°46' W 095°06'1 2.4
2017-Dec-03 06:22N 29°45' W 095°06'2 5.9
2017-Dec-03 06:01N 29°44' W 095°08'1 2.8
2017-Dec-03 05:30N 29°44' W 095°10'0 0.0
2017-Dec-03 05:00N 29°44' W 095°10'0 0.0
2017-Dec-03 04:26N 29°44' W 095°10'0 0.0
2017-Dec-03 04:01N 29°44' W 095°10'0 0.0
2017-Dec-03 03:30N 29°44' W 095°10'0 0.1
2017-Dec-03 03:00N 29°45' W 095°10'2 3.2
2017-Dec-03 02:30N 29°44' W 095°08'0 0.0
2017-Dec-03 01:59N 29°44' W 095°08'0 0.7
2017-Dec-03 01:28N 29°44' W 095°08'3 4.9
2017-Dec-03 00:55N 29°46' W 095°05'0 0.0
2017-Dec-03 00:24N 29°46' W 095°05'3 6.0
2017-Dec-02 23:55N 29°44' W 095°08'3 7.3
2017-Dec-02 23:30N 29°45' W 095°11'1 1.7
2017-Dec-02 23:00N 29°44' W 095°12'0 0.0
2017-Dec-02 22:31N 29°44' W 095°12'0 0.0
2017-Dec-02 21:59N 29°44' W 095°12'2 3.5
2017-Dec-02 21:30N 29°45' W 095°10'3 0.5
2017-Dec-02 16:50N 29°44' W 095°08'0 0.0
2017-Dec-02 16:30N 29°44' W 095°08'0 0.0
2017-Dec-02 16:00N 29°44' W 095°08'0 0.0
2017-Dec-02 15:27N 29°44' W 095°08'0 0.0
2017-Dec-02 15:00N 29°44' W 095°08'2 0.4
2017-Dec-02 07:57N 29°46' W 095°06'2 4.2
2017-Dec-02 07:29N 29°44' W 095°06'3 1.8
2017-Dec-02 05:36N 29°45' W 095°10'0 0.1
2017-Dec-02 03:34N 29°45' W 095°10'1 7.8
2017-Dec-02 03:29N 29°44' W 095°09'3 4.7
2017-Dec-02 02:46N 29°46' W 095°06'0 0.2
2017-Dec-02 01:20N 29°46' W 095°06'2 4.4
2017-Dec-02 00:56N 29°45' W 095°06'4 7.3
2017-Dec-02 00:25N 29°45' W 095°11'1 1.6
2017-Dec-01 23:30N 29°44' W 095°12'0 0.0
2017-Dec-01 21:43N 29°44' W 095°12'2 5.2
2017-Dec-01 21:20N 29°45' W 095°10'5 1.5
2017-Dec-01 17:55N 29°45' W 095°04'1 0.7
2017-Dec-01 16:37N 29°44' W 095°03'2 1.6
2017-Dec-01 15:05N 29°45' W 095°06'1 5.5
2017-Dec-01 14:51N 29°44' W 095°07'0 0.1
2017-Dec-01 14:29N 29°44' W 095°07'0 0.0
2017-Dec-01 13:53N 29°44' W 095°07'2 0.2
2017-Dec-01 04:05N 29°46' W 095°06'0 2.7
2017-Dec-01 04:00N 29°46' W 095°06'1 0.4
2017-Dec-01 01:37N 29°45' W 095°06'  

Dump ship's entire track history